createdAt,value
2019-06-10T00:01:21.401Z,83.50
2019-06-10T00:03:51.464Z,84.00
2019-06-10T00:06:25.254Z,82.50
2019-06-10T00:08:52.943Z,84.00
2019-06-10T00:11:26.515Z,83.50
2019-06-10T00:13:56.604Z,83.60
2019-06-10T00:16:24.527Z,83.90
2019-06-10T00:18:54.315Z,83.40
2019-06-10T00:21:31.268Z,83.40
2019-06-10T00:24:07.417Z,83.50
2019-06-10T00:26:36.193Z,83.20
2019-06-10T00:29:05.766Z,84.00
2019-06-10T00:31:33.019Z,83.50
2019-06-10T00:34:03.376Z,84.00
2019-06-10T00:36:31.200Z,83.70
2019-06-10T00:39:03.511Z,83.60
2019-06-10T00:41:31.445Z,83.90
2019-06-10T00:44:01.817Z,84.50
2019-06-10T00:46:28.915Z,84.30
2019-06-10T00:48:56.604Z,84.90
2019-06-10T00:51:24.400Z,85.30
2019-06-10T00:53:52.131Z,85.00
2019-06-10T00:56:21.607Z,85.40
2019-06-10T00:58:51.362Z,85.80
2019-06-10T01:01:31.116Z,86.30
2019-06-10T01:03:57.926Z,86.70
2019-06-10T01:06:25.520Z,86.80
2019-06-10T01:08:53.594Z,86.80
2019-06-10T01:11:27.009Z,86.20
2019-06-10T01:13:50.966Z,86.40
2019-06-10T01:16:18.691Z,86.50
2019-06-10T01:18:46.248Z,86.30
2019-06-10T01:21:15.797Z,86.10
2019-06-10T01:23:44.469Z,86.40
2019-06-10T01:26:14.582Z,86.10
2019-06-10T01:28:43.072Z,85.10
2019-06-10T01:31:15.873Z,84.60
2019-06-10T01:33:41.203Z,85.60
2019-06-10T01:36:12.566Z,85.90
2019-06-10T01:38:38.251Z,85.30
2019-06-10T01:41:06.076Z,85.50
2019-06-10T01:43:34.892Z,85.70
2019-06-10T01:46:03.063Z,85.60
2019-06-10T01:48:43.287Z,84.80
2019-06-10T01:51:01.792Z,86.10
2019-06-10T01:53:31.235Z,85.50
2019-06-10T01:56:00.986Z,84.90
2019-06-10T01:58:33.088Z,85.90
2019-06-10T02:01:13.858Z,85.10
2019-06-10T02:03:41.496Z,85.50
2019-06-10T02:06:12.539Z,84.60
2019-06-10T02:08:38.839Z,84.80
2019-06-10T02:11:06.227Z,84.80
2019-06-10T02:13:35.065Z,85.10
2019-06-10T02:16:03.698Z,84.70
2019-06-10T02:18:31.935Z,85.10
2019-06-10T02:21:00.968Z,85.00
2019-06-10T02:23:33.938Z,84.70
2019-06-10T02:26:07.561Z,84.90
2019-06-10T02:28:37.424Z,85.00
2019-06-10T02:31:05.021Z,85.40
2019-06-10T02:33:36.575Z,84.80
2019-06-10T02:36:05.657Z,85.70
2019-06-10T02:38:39.388Z,85.70
2019-06-10T02:41:22.629Z,85.70
2019-06-10T02:43:48.405Z,85.10
2019-06-10T02:46:19.720Z,85.40
2019-06-10T02:48:45.902Z,85.60
2019-06-10T02:51:15.337Z,85.10
2019-06-10T02:53:54.240Z,85.60
2019-06-10T02:56:29.984Z,85.10
2019-06-10T02:58:56.823Z,85.30
2019-06-10T03:01:31.394Z,85.30
2019-06-10T03:04:04.395Z,85.50
2019-06-10T03:06:39.325Z,85.40
2019-06-10T03:09:03.930Z,85.40
2019-06-10T03:11:37.212Z,85.50
2019-06-10T03:14:06.457Z,85.70
2019-06-10T03:16:52.591Z,85.50
2019-06-10T03:19:40.914Z,86.30
2019-06-10T03:21:55.475Z,86.20
2019-06-10T03:24:38.431Z,87.20
2019-06-10T03:27:14.776Z,86.20
2019-06-10T03:29:44.331Z,86.20
2019-06-10T03:32:19.173Z,86.40
2019-06-10T03:34:47.390Z,86.60
2019-06-10T03:37:16.083Z,87.20
2019-06-10T03:39:43.922Z,87.40
2019-06-10T03:42:23.719Z,88.80
2019-06-10T03:44:52.578Z,87.10
2019-06-10T03:47:23.869Z,89.00
2019-06-10T03:50:06.625Z,89.80
2019-06-10T03:52:37.564Z,89.60
2019-06-10T03:55:06.126Z,90.00
2019-06-10T03:57:36.614Z,89.80
2019-06-10T04:00:14.108Z,90.00
2019-06-10T04:02:45.172Z,89.50
2019-06-10T04:05:15.919Z,89.80
2019-06-10T04:08:04.960Z,89.60
2019-06-10T04:10:45.808Z,89.40
2019-06-10T04:13:14.555Z,89.60
2019-06-10T04:15:58.620Z,89.30
2019-06-10T04:18:29.465Z,89.30
2019-06-10T04:21:02.040Z,89.60
2019-06-10T04:23:28.925Z,89.00
2019-06-10T04:25:57.994Z,89.70
2019-06-10T04:28:27.271Z,89.60
2019-06-10T04:31:02.604Z,89.30
2019-06-10T04:33:37.325Z,89.60
2019-06-10T04:36:07.145Z,89.20
2019-06-10T04:39:03.000Z,90.10
2019-06-10T04:41:37.343Z,89.80
2019-06-10T04:44:05.054Z,90.00
2019-06-10T04:46:48.861Z,89.00
2019-06-10T04:49:21.376Z,89.30
2019-06-10T04:51:49.659Z,88.80
2019-06-10T04:54:54.734Z,88.70
2019-06-10T04:57:25.317Z,88.30
2019-06-10T04:59:59.832Z,88.60
2019-06-10T05:02:43.199Z,87.70
2019-06-10T05:05:13.053Z,87.40
2019-06-10T05:07:42.755Z,87.30
2019-06-10T05:10:12.394Z,87.80
2019-06-10T05:12:43.203Z,87.40
2019-06-10T05:15:22.010Z,87.10
2019-06-10T05:17:56.642Z,86.00
2019-06-10T05:20:57.707Z,85.60
2019-06-10T05:23:22.491Z,85.90
2019-06-10T05:25:56.181Z,86.00
2019-06-10T05:28:34.176Z,84.00
2019-06-10T05:31:02.853Z,83.10
2019-06-10T05:33:38.494Z,83.20
2019-06-10T05:36:06.314Z,83.10
2019-06-10T05:38:35.777Z,81.60
2019-06-10T05:41:03.338Z,82.20
2019-06-10T05:43:34.407Z,79.80
2019-06-10T05:46:03.024Z,77.60
2019-06-10T05:48:40.643Z,78.30
2019-06-10T05:51:08.674Z,80.10
2019-06-10T05:53:36.286Z,74.50
2019-06-10T05:56:09.886Z,75.30
2019-06-10T05:58:38.590Z,76.40
2019-06-10T06:01:06.382Z,74.90
2019-06-10T06:03:36.882Z,71.10
2019-06-10T06:06:04.153Z,74.50
2019-06-10T06:08:35.421Z,70.40
2019-06-10T06:11:03.476Z,69.50
2019-06-10T06:13:34.190Z,67.60
2019-06-10T06:16:09.305Z,67.00
2019-06-10T06:18:43.228Z,65.80
2019-06-10T06:21:22.425Z,63.70
2019-06-10T06:23:46.156Z,65.10
2019-06-10T06:26:16.456Z,61.20
2019-06-10T06:28:43.388Z,62.70
2019-06-10T06:31:13.644Z,62.70
2019-06-10T06:33:43.271Z,64.00
2019-06-10T06:36:38.203Z,62.40
2019-06-10T06:39:07.470Z,63.90
2019-06-10T06:41:39.109Z,62.30
2019-06-10T06:44:07.095Z,63.10
2019-06-10T06:46:37.576Z,65.10
2019-06-10T06:49:04.460Z,61.20
2019-06-10T06:51:46.888Z,61.00
2019-06-10T06:54:03.262Z,59.90
2019-06-10T06:56:34.507Z,61.50
2019-06-10T06:59:02.545Z,59.40
2019-06-10T07:01:35.806Z,58.40
2019-06-10T07:04:02.686Z,57.60
2019-06-10T07:06:32.910Z,58.20
2019-06-10T07:09:07.421Z,57.60
2019-06-10T07:11:33.982Z,57.20
2019-06-10T07:14:03.804Z,55.90
2019-06-10T07:16:46.610Z,55.50
2019-06-10T07:19:14.510Z,57.10
2019-06-10T07:22:04.150Z,58.40
2019-06-10T07:24:14.762Z,58.20
2019-06-10T07:26:50.530Z,57.90
2019-06-10T07:29:19.622Z,53.90
2019-06-10T07:31:50.332Z,53.30
2019-06-10T07:34:17.699Z,53.60
2019-06-10T07:36:52.208Z,52.50
2019-06-10T07:39:22.750Z,51.40
2019-06-10T07:41:52.831Z,53.30
2019-06-10T07:44:22.636Z,53.20
2019-06-10T07:46:52.835Z,52.60
2019-06-10T07:49:23.789Z,51.60
2019-06-10T07:51:54.205Z,51.70
2019-06-10T07:54:23.069Z,51.80
2019-06-10T07:56:53.692Z,51.70
2019-06-10T07:59:23.288Z,52.10
2019-06-10T08:01:55.113Z,51.60
2019-06-10T08:04:23.279Z,50.20
2019-06-10T08:06:53.002Z,50.60
2019-06-10T08:09:25.898Z,48.60
2019-06-10T08:12:03.383Z,48.40
2019-06-10T08:14:32.991Z,48.00
2019-06-10T08:17:03.103Z,49.20
2019-06-10T08:19:35.797Z,51.70
2019-06-10T08:22:13.153Z,49.70
2019-06-10T08:24:43.587Z,48.60
2019-06-10T08:27:12.105Z,48.40
2019-06-10T08:29:43.607Z,47.60
2019-06-10T08:32:14.178Z,47.10
2019-06-10T08:34:44.712Z,45.80
2019-06-10T08:37:13.590Z,49.40
2019-06-10T08:39:53.273Z,46.90
2019-06-10T08:42:23.312Z,48.00
2019-06-10T08:45:00.044Z,45.90
2019-06-10T08:47:27.760Z,44.70
2019-06-10T08:49:55.426Z,46.10
2019-06-10T08:52:26.484Z,45.50
2019-06-10T08:54:55.010Z,45.00
2019-06-10T08:57:23.884Z,45.90
2019-06-10T08:59:55.248Z,46.30
2019-06-10T09:02:26.122Z,44.30
2019-06-10T09:04:53.893Z,43.90
2019-06-10T09:07:23.757Z,44.80
2019-06-10T09:09:53.785Z,43.70
2019-06-10T09:12:32.462Z,43.80
2019-06-10T09:14:53.270Z,42.10
2019-06-10T09:17:22.858Z,43.30
2019-06-10T09:19:54.189Z,42.40
2019-06-10T09:22:25.663Z,42.40
2019-06-10T09:24:58.904Z,42.00
2019-06-10T09:27:27.180Z,43.80
2019-06-10T09:29:55.818Z,42.20
2019-06-10T09:32:25.640Z,41.60
2019-06-10T09:34:57.801Z,42.80
2019-06-10T09:37:37.843Z,41.60
2019-06-10T09:40:07.141Z,41.70
2019-06-10T09:42:37.154Z,42.50
2019-06-10T09:45:13.237Z,40.90
2019-06-10T09:47:53.506Z,39.60
2019-06-10T09:50:27.029Z,41.50
2019-06-10T09:52:57.143Z,44.30
2019-06-10T09:55:34.094Z,41.50
2019-06-10T09:58:03.149Z,42.60
2019-06-10T10:00:45.236Z,43.60
2019-06-10T10:03:18.774Z,43.10
2019-06-10T10:05:59.390Z,43.00
2019-06-10T10:08:15.773Z,42.50
2019-06-10T10:10:47.249Z,42.40
2019-06-10T10:13:14.824Z,42.40
2019-06-10T10:15:44.103Z,44.30
2019-06-10T10:18:13.407Z,41.70
2019-06-10T10:20:44.825Z,42.70
2019-06-10T10:23:13.164Z,41.80
2019-06-10T10:25:48.233Z,42.30
2019-06-10T10:28:22.094Z,42.30
2019-06-10T10:30:50.310Z,43.30
2019-06-10T10:33:18.515Z,44.10
2019-06-10T10:35:52.726Z,43.90
2019-06-10T10:38:34.891Z,41.90
2019-06-10T10:41:05.055Z,42.50
2019-06-10T10:43:43.671Z,42.70
2019-06-10T10:46:14.324Z,44.40
2019-06-10T10:48:47.108Z,46.00
2019-06-10T10:51:16.450Z,44.20
2019-06-10T10:53:56.247Z,43.80
2019-06-10T10:56:18.003Z,45.10
2019-06-10T10:58:47.349Z,45.10
2019-06-10T11:01:17.413Z,44.10
2019-06-10T11:03:47.603Z,43.40
2019-06-10T11:06:23.196Z,45.20
2019-06-10T11:08:55.217Z,44.20
2019-06-10T11:11:22.839Z,45.90
2019-06-10T11:13:53.314Z,46.20
2019-06-10T11:16:19.555Z,46.10
2019-06-10T11:18:49.315Z,45.80
2019-06-10T11:21:17.103Z,47.50
2019-06-10T11:23:46.112Z,47.40
2019-06-10T11:26:14.332Z,46.90
2019-06-10T11:28:47.460Z,48.70
2019-06-10T11:31:15.322Z,47.30
2019-06-10T11:33:44.527Z,48.20
2019-06-10T11:36:13.430Z,47.00
2019-06-10T11:38:41.593Z,46.20
2019-06-10T11:41:09.849Z,46.70
2019-06-10T11:43:37.823Z,45.20
2019-06-10T11:46:07.786Z,45.10
2019-06-10T11:48:35.181Z,47.40
2019-06-10T11:51:04.586Z,46.20
2019-06-10T11:53:34.401Z,45.30
2019-06-10T11:56:02.560Z,45.40
2019-06-10T11:58:33.058Z,46.40
2019-06-10T12:01:01.381Z,46.00
2019-06-10T12:03:29.312Z,45.80
2019-06-10T12:06:05.747Z,45.70
2019-06-10T12:08:34.786Z,46.60
2019-06-10T12:11:02.555Z,46.50
2019-06-10T12:13:34.310Z,46.40
2019-06-10T12:18:33.569Z,47.90
2019-06-10T12:21:04.594Z,48.20
2019-06-10T12:23:33.593Z,47.80
2019-06-10T12:26:08.343Z,47.60
2019-06-10T12:28:36.961Z,49.00
2019-06-10T12:31:07.631Z,50.10
2019-06-10T12:33:35.608Z,48.80
2019-06-10T12:36:07.766Z,50.30
2019-06-10T12:38:35.768Z,50.20
2019-06-10T12:41:08.381Z,49.10
2019-06-10T12:43:35.076Z,47.90
2019-06-10T12:46:03.420Z,49.20
2019-06-10T12:48:34.172Z,49.60
2019-06-10T12:51:05.714Z,50.40
2019-06-10T12:53:32.552Z,50.70
2019-06-10T12:56:07.307Z,49.90
2019-06-10T12:58:30.293Z,49.70
2019-06-10T13:00:59.309Z,50.70
2019-06-10T13:03:29.397Z,48.00
2019-06-10T13:05:59.524Z,50.30
2019-06-10T13:08:27.360Z,48.80
2019-06-10T13:10:56.877Z,49.50
2019-06-10T13:13:28.433Z,50.00
2019-06-10T13:15:56.353Z,49.90
2019-06-10T13:18:25.036Z,50.40
2019-06-10T13:20:53.776Z,48.40
2019-06-10T13:23:31.565Z,49.60
2019-06-10T13:25:58.714Z,50.00
2019-06-10T13:28:29.407Z,50.30
2019-06-10T13:30:57.212Z,50.00
2019-06-10T13:33:27.047Z,50.20
2019-06-10T13:35:54.639Z,50.60
2019-06-10T13:38:22.770Z,50.30
2019-06-10T13:40:54.359Z,50.70
2019-06-10T13:43:23.223Z,51.60
2019-06-10T13:46:00.075Z,51.30
2019-06-10T13:48:29.233Z,50.80
2019-06-10T13:51:09.118Z,51.80
2019-06-10T13:53:37.603Z,50.50
2019-06-10T13:56:28.704Z,52.20
2019-06-10T13:58:45.054Z,52.60
2019-06-10T14:01:21.131Z,52.30
2019-06-10T14:03:46.694Z,51.80
2019-06-10T14:06:32.648Z,51.50
2019-06-10T14:08:44.731Z,51.30
2019-06-10T14:11:13.307Z,51.90
2019-06-10T14:13:44.455Z,52.30
2019-06-10T14:16:14.149Z,52.70
2019-06-10T14:19:09.189Z,52.60
2019-06-10T14:21:47.771Z,53.10
2019-06-10T14:24:16.455Z,53.00
2019-06-10T14:26:45.728Z,52.10
2019-06-10T14:29:16.967Z,53.10
2019-06-10T14:32:22.432Z,53.60
2019-06-10T14:34:52.767Z,52.60
2019-06-10T14:37:33.097Z,53.00
2019-06-10T14:39:52.917Z,53.30
2019-06-10T14:42:23.112Z,50.80
2019-06-10T14:44:52.641Z,53.00
2019-06-10T14:47:20.180Z,51.50
2019-06-10T14:49:47.976Z,51.90
2019-06-10T14:52:19.108Z,51.80
2019-06-10T14:54:53.193Z,51.40
2019-06-10T14:57:25.155Z,49.50
2019-06-10T14:59:56.176Z,50.20
2019-06-10T15:02:23.878Z,51.90
2019-06-10T15:04:53.180Z,50.00
2019-06-10T15:07:24.006Z,51.90
2019-06-10T15:09:53.736Z,50.40
2019-06-10T15:12:23.452Z,51.10
2019-06-10T15:14:52.159Z,50.00
2019-06-10T15:17:44.889Z,50.70
2019-06-10T15:20:13.790Z,51.10
2019-06-10T15:22:43.951Z,50.30
2019-06-10T15:25:19.350Z,51.70
2019-06-10T15:28:03.225Z,53.90
2019-06-10T15:30:33.861Z,56.80
2019-06-10T15:33:16.311Z,57.20
2019-06-10T15:36:04.032Z,58.90
2019-06-10T15:38:38.462Z,61.20
2019-06-10T15:41:06.618Z,61.30
2019-06-10T15:43:42.920Z,63.90
2019-06-10T15:46:16.304Z,66.30
2019-06-10T15:48:48.232Z,65.80
2019-06-10T15:51:33.540Z,65.60
2019-06-10T15:54:03.594Z,67.00
2019-06-10T15:56:45.093Z,69.40
2019-06-10T15:59:21.459Z,66.00
2019-06-10T16:01:49.374Z,65.40
2019-06-10T16:04:19.304Z,68.00
2019-06-10T16:06:53.042Z,68.60
2019-06-10T16:09:27.093Z,70.20
2019-06-10T16:12:19.249Z,70.00
2019-06-10T16:14:52.972Z,68.90
2019-06-10T16:17:24.827Z,73.40
2019-06-10T16:19:56.795Z,74.20
2019-06-10T16:22:26.256Z,73.40
2019-06-10T16:24:58.323Z,75.00
2019-06-10T16:27:46.867Z,74.00
2019-06-10T16:30:02.822Z,75.40
2019-06-10T16:32:32.932Z,76.10
2019-06-10T16:35:04.535Z,76.80
2019-06-10T16:41:24.737Z,75.70
2019-06-10T16:45:20.946Z,77.10
2019-06-10T16:58:30.344Z,76.40
2019-06-10T17:00:57.836Z,76.60
2019-06-10T17:03:31.476Z,73.70
2019-06-10T17:06:48.305Z,75.90
2019-06-10T17:09:52.601Z,74.40
2019-06-10T17:12:28.806Z,75.60
2019-06-10T17:18:29.973Z,73.80
2019-06-10T17:21:09.538Z,72.80
2019-06-10T17:24:12.647Z,72.60
2019-06-10T17:26:46.374Z,74.60
2019-06-10T17:29:16.227Z,74.80
2019-06-10T17:31:46.095Z,75.70
2019-06-10T17:34:16.385Z,74.50
2019-06-10T17:36:48.398Z,75.70
2019-06-10T17:39:21.299Z,77.50
2019-06-10T17:41:50.443Z,76.80
2019-06-10T17:44:24.374Z,76.80
2019-06-10T17:46:52.855Z,77.20
2019-06-10T17:49:24.673Z,76.90
2019-06-10T17:51:52.599Z,77.20
2019-06-10T17:54:22.500Z,77.50
2019-06-10T17:56:53.151Z,78.10
2019-06-10T17:59:22.485Z,78.10
2019-06-10T18:01:55.825Z,79.70
2019-06-10T18:04:25.599Z,79.10
2019-06-10T18:06:55.331Z,78.20
2019-06-10T18:09:24.493Z,80.80
2019-06-10T18:11:52.564Z,80.60
2019-06-10T18:14:22.777Z,80.40
2019-06-10T18:16:52.438Z,80.60
2019-06-10T18:19:22.249Z,79.40
2019-06-10T18:21:52.140Z,80.20
2019-06-10T18:24:21.424Z,79.50
2019-06-10T18:26:49.320Z,80.60
2019-06-10T18:29:17.012Z,79.50
2019-06-10T18:31:46.796Z,82.60
2019-06-10T18:34:14.324Z,82.70
2019-06-10T18:36:43.869Z,83.30
2019-06-10T18:39:12.520Z,82.70
2019-06-10T18:41:40.634Z,82.40
2019-06-10T18:44:22.467Z,81.30
2019-06-10T18:46:45.282Z,82.20
2019-06-10T18:49:22.522Z,82.50
2019-06-10T18:51:55.095Z,82.90
2019-06-10T18:54:24.057Z,84.20
2019-06-10T18:56:52.536Z,83.40
2019-06-10T18:59:22.613Z,83.60
2019-06-10T19:01:52.734Z,84.70
2019-06-10T19:04:26.845Z,85.30
2019-06-10T19:06:56.998Z,86.20
2019-06-10T19:09:26.931Z,84.10
2019-06-10T19:11:54.523Z,84.60
2019-06-10T19:14:22.492Z,84.00
2019-06-10T19:16:52.414Z,83.20
2019-06-10T19:19:22.764Z,84.30
2019-06-10T19:22:05.570Z,84.10
2019-06-10T19:24:23.531Z,84.70
2019-06-10T19:26:52.859Z,84.40
2019-06-10T19:29:33.450Z,87.10
2019-06-10T19:31:52.642Z,87.20
2019-06-10T19:34:22.460Z,86.60
2019-06-10T19:36:52.162Z,86.50
2019-06-10T19:39:26.683Z,87.10
2019-06-10T19:41:54.492Z,86.20
2019-06-10T19:44:23.426Z,86.60
2019-06-10T19:46:52.239Z,87.50
2019-06-10T19:49:21.228Z,87.40
2019-06-10T19:51:48.704Z,87.50
2019-06-10T19:54:16.215Z,87.30
2019-06-10T19:56:52.459Z,87.70
2019-06-10T19:59:23.090Z,87.40
2019-06-10T20:01:55.593Z,88.30
2019-06-10T20:04:23.494Z,89.40
2019-06-10T20:06:53.639Z,90.00
2019-06-10T20:09:23.267Z,90.10
2019-06-10T20:12:02.024Z,91.10
2019-06-10T20:14:48.022Z,90.00
2019-06-10T20:17:15.779Z,90.20
2019-06-10T20:19:45.711Z,90.10
2019-06-10T20:22:19.237Z,88.80
2019-06-10T20:24:52.481Z,90.70
2019-06-10T20:27:24.001Z,90.00
2019-06-10T20:30:04.529Z,89.50
2019-06-10T20:32:29.005Z,88.80
2019-06-10T20:34:56.647Z,89.60
2019-06-10T20:37:28.969Z,90.60
2019-06-10T20:39:57.690Z,90.60
2019-06-10T20:42:26.310Z,90.80
2019-06-10T20:45:07.164Z,90.40
2019-06-10T20:47:39.506Z,90.50
2019-06-10T20:50:07.085Z,90.10
2019-06-10T20:52:35.856Z,89.20
2019-06-10T20:55:07.579Z,89.60
2019-06-10T20:57:49.920Z,90.10
2019-06-10T21:00:18.734Z,90.20
2019-06-10T21:02:34.806Z,89.50
2019-06-10T21:05:02.899Z,90.00
2019-06-10T21:07:44.190Z,89.80
2019-06-10T21:10:22.240Z,90.20
2019-06-10T21:12:50.992Z,89.60
2019-06-10T21:15:25.014Z,90.20
2019-06-10T21:17:55.840Z,89.60
2019-06-10T21:20:23.463Z,90.10
2019-06-10T21:22:55.762Z,90.00
2019-06-10T21:25:24.405Z,90.00
2019-06-10T21:27:54.881Z,88.40
2019-06-10T21:30:37.654Z,90.10
2019-06-10T21:32:54.789Z,90.00
2019-06-10T21:35:22.337Z,90.20
2019-06-10T21:37:51.629Z,90.50
2019-06-10T21:40:22.308Z,90.30
2019-06-10T21:42:50.586Z,90.80
2019-06-10T21:45:19.412Z,90.60
2019-06-10T21:47:50.414Z,90.90
2019-06-10T21:50:18.293Z,91.00
2019-06-10T21:52:53.505Z,91.60
2019-06-10T21:55:25.403Z,91.30
2019-06-10T21:57:55.111Z,91.40
2019-06-10T22:00:29.169Z,91.40
2019-06-10T22:02:58.646Z,91.10
2019-06-10T22:05:26.519Z,90.70
2019-06-10T22:08:00.071Z,91.50
2019-06-10T22:10:27.905Z,91.10
2019-06-10T22:12:59.122Z,91.70
2019-06-10T22:15:28.252Z,91.30
2019-06-10T22:17:56.119Z,91.30
2019-06-10T22:20:23.882Z,91.40
2019-06-10T22:22:55.108Z,92.10
2019-06-10T22:25:23.177Z,91.20
2019-06-10T22:27:51.862Z,91.90
2019-06-10T22:30:19.968Z,91.90
2019-06-10T22:32:47.483Z,91.10
2019-06-10T22:35:15.085Z,92.00
2019-06-10T22:37:43.488Z,91.80
2019-06-10T22:40:12.394Z,91.90
2019-06-10T22:42:40.237Z,91.60
2019-06-10T22:45:07.962Z,91.60
2019-06-10T22:47:37.664Z,92.40
2019-06-10T22:50:07.573Z,92.00
2019-06-10T22:52:34.935Z,92.10
2019-06-10T22:55:03.499Z,91.50
2019-06-10T22:57:31.490Z,91.10
2019-06-10T23:00:06.403Z,91.20
2019-06-10T23:02:33.864Z,91.60
2019-06-10T23:05:05.103Z,92.10
2019-06-10T23:07:32.858Z,92.60
2019-06-10T23:10:03.052Z,92.50
2019-06-10T23:12:29.590Z,92.50
2019-06-10T23:14:59.320Z,92.80
2019-06-10T23:17:26.893Z,92.90
2019-06-10T23:19:58.160Z,92.40
2019-06-10T23:22:26.552Z,93.20
2019-06-10T23:24:55.733Z,93.20
2019-06-10T23:27:23.965Z,93.20
2019-06-10T23:29:53.923Z,93.90
2019-06-10T23:32:22.203Z,93.80
2019-06-10T23:34:49.646Z,92.80
2019-06-10T23:37:17.114Z,93.70
2019-06-10T23:39:46.007Z,93.70
2019-06-10T23:42:13.934Z,93.50
2019-06-10T23:44:41.934Z,94.40
2019-06-10T23:47:12.598Z,93.90
2019-06-10T23:49:39.783Z,93.50
2019-06-10T23:52:07.345Z,94.00
2019-06-10T23:54:35.216Z,93.70
2019-06-10T23:57:05.710Z,93.90
2019-06-10T23:59:33.268Z,94.00
